createdAt,value
2018-04-18T00:00:12.818Z,4.13
2018-04-18T00:02:41.169Z,5.17
2018-04-18T00:05:11.075Z,3.63
2018-04-18T00:07:39.505Z,3.50
2018-04-18T00:10:07.978Z,4.03
2018-04-18T00:12:37.249Z,3.77
2018-04-18T00:15:07.982Z,2.67
2018-04-18T00:17:36.291Z,3.00
2018-04-18T00:20:05.513Z,4.10
2018-04-18T00:22:33.816Z,3.67
2018-04-18T00:25:02.167Z,3.83
2018-04-18T00:27:30.488Z,3.00
2018-04-18T00:29:58.762Z,1.73
2018-04-18T00:32:27.093Z,3.67
2018-04-18T00:34:55.449Z,2.60
2018-04-18T00:37:23.769Z,3.10
2018-04-18T00:39:52.343Z,3.23
2018-04-18T00:42:21.454Z,1.70
2018-04-18T00:44:49.809Z,2.63
2018-04-18T00:47:19.497Z,2.60
2018-04-18T00:49:48.609Z,1.97
2018-04-18T00:52:17.717Z,2.40
2018-04-18T00:54:46.963Z,2.20
2018-04-18T00:57:15.299Z,3.63
2018-04-18T00:59:44.670Z,2.67
2018-04-18T01:02:13.065Z,2.50
2018-04-18T01:04:43.169Z,2.80
2018-04-18T01:07:12.513Z,2.30
2018-04-18T01:09:40.920Z,3.07
2018-04-18T01:12:10.064Z,3.33
2018-04-18T01:14:38.409Z,2.40
2018-04-18T01:17:06.762Z,2.63
2018-04-18T01:19:36.857Z,2.60
2018-04-18T01:22:05.199Z,5.27
2018-04-18T01:24:33.573Z,5.37
2018-04-18T01:27:02.310Z,9.27
2018-04-18T01:29:30.810Z,3.23
2018-04-18T01:32:00.616Z,2.37
2018-04-18T01:34:29.333Z,4.37
2018-04-18T01:36:58.603Z,5.03
2018-04-18T01:39:27.040Z,3.70
2018-04-18T01:41:57.871Z,4.60
2018-04-18T01:44:26.201Z,3.33
2018-04-18T01:46:54.549Z,6.57
2018-04-18T01:49:25.224Z,3.90
2018-04-18T01:51:54.375Z,3.43
2018-04-18T01:54:23.120Z,3.30
2018-04-18T01:56:52.318Z,3.63
2018-04-18T01:59:20.746Z,3.30
2018-04-18T02:01:50.425Z,6.37
2018-04-18T02:04:20.067Z,4.57
2018-04-18T02:06:48.494Z,3.53
2018-04-18T02:09:16.870Z,4.93
2018-04-18T02:11:46.593Z,1.73
2018-04-18T02:14:14.903Z,2.10
2018-04-18T02:16:45.227Z,7.13
2018-04-18T02:19:13.557Z,2.80
2018-04-18T02:21:41.915Z,4.03
2018-04-18T02:24:10.198Z,5.60
2018-04-18T02:26:38.567Z,3.37
2018-04-18T02:29:07.378Z,2.50
2018-04-18T02:31:36.502Z,5.50
2018-04-18T02:34:05.546Z,1.77
2018-04-18T02:36:33.886Z,1.87
2018-04-18T02:39:12.273Z,2.00
2018-04-18T02:41:40.575Z,3.20
2018-04-18T02:44:08.906Z,2.07
2018-04-18T02:46:38.181Z,2.30
2018-04-18T02:49:07.307Z,2.73
2018-04-18T02:51:58.895Z,2.27
2018-04-18T02:54:27.223Z,5.60
2018-04-18T02:56:56.342Z,1.83
2018-04-18T02:59:24.653Z,5.47
2018-04-18T03:01:53.118Z,2.93
2018-04-18T03:04:22.540Z,2.93
2018-04-18T03:06:51.050Z,3.27
2018-04-18T03:09:19.382Z,2.83
2018-04-18T03:11:47.692Z,1.70
2018-04-18T03:14:16.022Z,2.03
2018-04-18T03:16:44.369Z,4.13
2018-04-18T03:19:12.666Z,3.07
2018-04-18T03:21:41.056Z,1.80
2018-04-18T03:24:09.942Z,2.47
2018-04-18T03:26:38.636Z,5.53
2018-04-18T03:29:07.015Z,2.40
2018-04-18T03:31:35.322Z,2.30
2018-04-18T03:34:03.626Z,3.33
2018-04-18T03:36:35.378Z,3.50
2018-04-18T03:39:04.344Z,1.40
2018-04-18T03:41:33.276Z,1.53
2018-04-18T03:44:02.582Z,2.73
2018-04-18T03:46:31.529Z,2.97
2018-04-18T03:48:59.910Z,2.03
2018-04-18T03:51:29.150Z,4.10
2018-04-18T03:53:57.521Z,3.67
2018-04-18T03:56:26.053Z,6.17
2018-04-18T03:58:54.465Z,1.63
2018-04-18T04:01:23.714Z,1.90
2018-04-18T04:03:52.058Z,1.50
2018-04-18T04:06:20.417Z,1.40
2018-04-18T04:08:49.659Z,2.23
2018-04-18T04:11:18.733Z,2.33
2018-04-18T04:13:47.109Z,1.87
2018-04-18T04:16:28.639Z,1.83
2018-04-18T04:19:08.958Z,1.90
2018-04-18T04:21:49.674Z,2.13
2018-04-18T04:24:42.770Z,1.43
2018-04-18T04:27:11.889Z,4.17
2018-04-18T04:29:40.206Z,2.00
2018-04-18T04:32:08.510Z,3.77
2018-04-18T04:34:37.614Z,2.37
2018-04-18T04:37:06.713Z,3.93
2018-04-18T04:39:36.194Z,1.73
2018-04-18T04:42:05.440Z,2.00
2018-04-18T04:44:33.733Z,1.80
2018-04-18T04:47:02.363Z,4.73
2018-04-18T04:49:30.711Z,1.50
2018-04-18T04:51:59.039Z,2.87
2018-04-18T04:54:29.631Z,2.53
2018-04-18T04:56:58.032Z,2.33
2018-04-18T04:59:28.181Z,2.13
2018-04-18T05:01:59.196Z,5.00
2018-04-18T05:04:27.541Z,2.73
2018-04-18T05:06:56.021Z,2.93
2018-04-18T05:09:25.069Z,2.90
2018-04-18T05:11:55.786Z,5.60
2018-04-18T05:14:24.081Z,2.70
2018-04-18T05:16:52.703Z,2.60
2018-04-18T05:19:21.740Z,3.87
2018-04-18T05:21:50.167Z,2.60
2018-04-18T05:24:18.803Z,4.10
2018-04-18T05:26:48.561Z,2.40
2018-04-18T05:29:16.860Z,2.57
2018-04-18T05:31:46.460Z,3.03
2018-04-18T05:34:16.033Z,2.33
2018-04-18T05:36:45.135Z,2.50
2018-04-18T05:39:13.879Z,2.43
2018-04-18T05:41:42.217Z,2.50
2018-04-18T05:44:10.606Z,2.70
2018-04-18T05:46:39.027Z,5.43
2018-04-18T05:49:08.123Z,6.23
2018-04-18T05:51:36.450Z,4.33
2018-04-18T05:54:07.326Z,11.73
2018-04-18T05:56:37.272Z,34.43
2018-04-18T05:59:05.603Z,12.87
2018-04-18T06:01:35.526Z,6.70
2018-04-18T06:04:05.969Z,18.97
2018-04-18T06:06:34.275Z,16.93
2018-04-18T06:09:03.491Z,9.57
2018-04-18T06:11:32.414Z,12.17
2018-04-18T06:14:02.450Z,7.60
2018-04-18T06:16:30.758Z,5.07
2018-04-18T06:18:59.718Z,6.30
2018-04-18T06:21:29.195Z,7.23
2018-04-18T06:23:58.821Z,6.73
2018-04-18T06:26:27.125Z,6.80
2018-04-18T06:28:55.538Z,5.03
2018-04-18T06:31:24.410Z,3.40
2018-04-18T06:33:53.030Z,5.60
2018-04-18T06:36:26.499Z,7.50
2018-04-18T06:38:55.254Z,5.90
2018-04-18T06:41:24.345Z,4.43
2018-04-18T06:43:52.998Z,7.27
2018-04-18T06:46:23.629Z,4.67
2018-04-18T06:48:51.954Z,3.37
2018-04-18T06:51:20.325Z,5.43
2018-04-18T06:53:48.598Z,5.07
2018-04-18T06:56:17.314Z,3.67
2018-04-18T06:58:55.909Z,3.47
2018-04-18T07:01:24.259Z,4.13
2018-04-18T07:03:53.322Z,6.23
2018-04-18T07:06:21.646Z,7.10
2018-04-18T07:08:49.977Z,6.17
2018-04-18T07:11:22.412Z,16.50
2018-04-18T07:13:51.698Z,3.83
2018-04-18T07:16:22.012Z,3.00
2018-04-18T07:18:53.234Z,3.63
2018-04-18T07:21:21.910Z,3.73
2018-04-18T07:23:50.291Z,4.27
2018-04-18T07:26:19.581Z,3.53
2018-04-18T07:28:47.918Z,5.63
2018-04-18T07:31:17.873Z,3.77
2018-04-18T07:33:47.048Z,3.10
2018-04-18T07:36:15.427Z,16.00
2018-04-18T07:38:44.921Z,9.07
2018-04-18T07:41:17.236Z,7.33
2018-04-18T07:43:46.485Z,9.83
2018-04-18T07:46:14.812Z,10.53
2018-04-18T07:48:43.147Z,6.47
2018-04-18T07:51:12.349Z,8.50
2018-04-18T07:53:55.574Z,6.33
2018-04-18T07:56:23.909Z,8.00
2018-04-18T07:58:52.678Z,5.00
2018-04-18T08:01:21.800Z,4.10
2018-04-18T08:03:50.123Z,5.93
2018-04-18T08:06:18.442Z,6.30
2018-04-18T08:08:46.773Z,6.50
2018-04-18T08:11:15.986Z,6.23
2018-04-18T08:14:04.553Z,5.47
2018-04-18T08:16:33.130Z,9.03
2018-04-18T08:19:01.494Z,7.50
2018-04-18T08:21:30.379Z,12.03
2018-04-18T08:23:59.842Z,13.43
2018-04-18T08:26:28.171Z,16.60
2018-04-18T08:28:57.534Z,13.93
2018-04-18T08:31:26.754Z,14.63
2018-04-18T08:33:55.347Z,12.07
2018-04-18T08:36:30.189Z,22.57
2018-04-18T08:38:58.652Z,26.60
2018-04-18T08:41:27.751Z,21.47
2018-04-18T08:43:56.165Z,18.90
2018-04-18T08:46:24.458Z,16.13
2018-04-18T08:48:53.032Z,16.30
2018-04-18T08:51:21.383Z,16.43
2018-04-18T08:53:49.800Z,19.00
2018-04-18T08:56:19.815Z,13.10
2018-04-18T08:58:49.799Z,10.43
2018-04-18T09:01:20.309Z,11.43
2018-04-18T09:03:49.510Z,10.37
2018-04-18T09:06:30.235Z,15.47
2018-04-18T09:09:01.213Z,9.07
2018-04-18T09:11:31.218Z,10.40
2018-04-18T09:14:00.477Z,11.30
2018-04-18T09:16:30.675Z,7.67
2018-04-18T09:19:01.442Z,8.27
2018-04-18T09:21:30.692Z,8.77
2018-04-18T09:24:00.394Z,10.77
2018-04-18T09:26:30.558Z,8.80
2018-04-18T09:29:00.991Z,7.33
2018-04-18T09:31:30.119Z,7.43
2018-04-18T09:33:59.472Z,9.17
2018-04-18T09:36:32.561Z,8.40
2018-04-18T09:39:03.294Z,10.00
2018-04-18T09:41:32.345Z,6.73
2018-04-18T09:44:01.663Z,9.13
2018-04-18T09:46:30.815Z,10.83
2018-04-18T09:49:01.683Z,8.70
2018-04-18T09:51:31.999Z,8.53
2018-04-18T09:54:05.427Z,10.53
2018-04-18T09:59:36.708Z,7.70
2018-04-18T10:02:15.127Z,9.80
2018-04-18T10:04:54.721Z,7.90
2018-04-18T10:07:34.794Z,7.83
2018-04-18T10:10:05.042Z,7.77
2018-04-18T10:12:36.508Z,7.90
2018-04-18T10:15:04.904Z,9.20
2018-04-18T10:17:39.635Z,7.37
2018-04-18T10:20:12.282Z,10.23
2018-04-18T10:22:44.081Z,7.37
2018-04-18T10:25:14.072Z,6.63
2018-04-18T10:27:45.893Z,7.20
2018-04-18T10:30:18.619Z,7.83
2018-04-18T10:32:49.218Z,9.27
2018-04-18T10:35:18.401Z,8.47
2018-04-18T10:37:58.954Z,13.27
2018-04-18T10:40:29.959Z,8.93
2018-04-18T10:43:06.378Z,7.93
2018-04-18T10:45:36.310Z,9.10
2018-04-18T10:48:07.727Z,9.60
2018-04-18T10:50:36.274Z,5.73
2018-04-18T10:53:04.964Z,13.40
2018-04-18T10:55:34.229Z,9.40
2018-04-18T10:58:03.833Z,5.97
2018-04-18T11:00:34.468Z,7.77
2018-04-18T11:03:03.090Z,6.27
2018-04-18T11:05:32.178Z,8.67
2018-04-18T11:08:02.394Z,8.07
2018-04-18T11:10:31.666Z,7.87
2018-04-18T11:13:01.670Z,8.07
2018-04-18T11:15:30.956Z,7.20
2018-04-18T11:17:59.276Z,7.90
2018-04-18T11:20:28.283Z,11.37
2018-04-18T11:22:57.279Z,7.73
2018-04-18T11:25:27.494Z,7.53
2018-04-18T11:27:58.106Z,15.73
2018-04-18T11:30:29.412Z,74.83
2018-04-18T11:32:58.701Z,126.60
2018-04-18T11:35:28.919Z,38.30
2018-04-18T11:38:11.572Z,27.10
2018-04-18T11:40:41.702Z,18.43
2018-04-18T11:43:11.133Z,16.33
2018-04-18T11:45:45.746Z,16.33
2018-04-18T11:48:23.063Z,14.77
2018-04-18T11:50:51.622Z,17.20
2018-04-18T11:53:22.432Z,13.77
2018-04-18T11:55:51.771Z,12.27
2018-04-18T11:58:20.133Z,15.90
2018-04-18T12:00:48.580Z,15.03
2018-04-18T12:03:17.882Z,22.80
2018-04-18T12:05:48.799Z,16.90
2018-04-18T12:08:17.970Z,16.43
2018-04-18T12:10:47.142Z,10.87
2018-04-18T12:13:16.506Z,12.47
2018-04-18T12:15:45.673Z,10.43
2018-04-18T12:20:51.433Z,8.07
2018-04-18T12:23:20.887Z,11.97
2018-04-18T12:25:50.851Z,11.07
2018-04-18T12:28:20.992Z,10.87
2018-04-18T12:30:49.299Z,11.97
2018-04-18T12:33:17.742Z,154.13
2018-04-18T12:35:47.040Z,15.57
2018-04-18T12:38:15.441Z,20.57
2018-04-18T12:40:53.106Z,8.43
2018-04-18T12:43:21.980Z,6.93
2018-04-18T12:45:54.205Z,11.97
2018-04-18T12:48:23.391Z,7.10
2018-04-18T12:50:58.790Z,8.43
2018-04-18T12:53:28.599Z,8.60
2018-04-18T12:55:58.514Z,8.60
2018-04-18T12:58:29.225Z,6.53
2018-04-18T13:01:05.615Z,6.10
2018-04-18T13:03:34.458Z,6.70
2018-04-18T13:06:03.046Z,8.77
2018-04-18T13:08:31.852Z,6.40
2018-04-18T13:11:06.897Z,5.47
2018-04-18T13:13:37.355Z,4.57
2018-04-18T13:16:08.499Z,8.10
2018-04-18T13:18:37.567Z,7.87
2018-04-18T13:21:07.822Z,7.47
2018-04-18T13:23:36.193Z,8.33
2018-04-18T13:26:08.210Z,6.30
2018-04-18T13:28:36.791Z,7.33
2018-04-18T13:31:08.579Z,7.47
2018-04-18T13:33:39.085Z,6.10
2018-04-18T13:36:08.609Z,6.97
2018-04-18T13:38:38.051Z,6.30
2018-04-18T13:41:09.403Z,5.40
2018-04-18T13:43:38.490Z,6.77
2018-04-18T13:46:08.730Z,6.70
2018-04-18T13:48:38.517Z,8.40
2018-04-18T13:51:10.715Z,9.33
2018-04-18T13:53:40.222Z,5.00
2018-04-18T13:56:09.098Z,6.37
2018-04-18T13:58:39.767Z,11.37
2018-04-18T14:01:09.752Z,8.80
2018-04-18T14:03:40.002Z,6.03
2018-04-18T14:06:12.227Z,3.93
2018-04-18T14:08:40.542Z,3.50
2018-04-18T14:11:11.400Z,3.37
2018-04-18T14:13:42.910Z,7.10
2018-04-18T14:16:13.046Z,5.33
2018-04-18T14:18:41.814Z,5.17
2018-04-18T14:21:25.183Z,5.33
2018-04-18T14:23:53.722Z,4.17
2018-04-18T14:26:22.843Z,4.60
2018-04-18T14:28:52.149Z,3.03
2018-04-18T14:31:20.876Z,5.63
2018-04-18T14:33:50.177Z,5.37
2018-04-18T14:36:18.998Z,3.00
2018-04-18T14:38:49.146Z,3.17
2018-04-18T14:41:18.323Z,4.37
2018-04-18T14:43:49.453Z,5.37
2018-04-18T14:46:19.044Z,3.30
2018-04-18T14:48:47.439Z,4.90
2018-04-18T14:51:16.666Z,4.20
2018-04-18T14:53:45.115Z,5.30
2018-04-18T14:56:15.081Z,4.00
2018-04-18T14:58:46.236Z,2.73
2018-04-18T15:01:14.987Z,2.90
2018-04-18T15:03:44.083Z,3.80
2018-04-18T15:06:13.277Z,3.23
2018-04-18T15:08:41.662Z,3.70
2018-04-18T15:11:09.973Z,3.23
2018-04-18T15:13:45.926Z,4.27
2018-04-18T15:16:15.179Z,6.53
2018-04-18T15:18:44.315Z,3.03
2018-04-18T15:21:12.672Z,4.83
2018-04-18T15:23:42.970Z,5.07
2018-04-18T15:26:11.717Z,5.83
2018-04-18T15:28:40.045Z,2.57
2018-04-18T15:31:08.337Z,3.27
2018-04-18T15:33:38.483Z,4.33
2018-04-18T15:36:08.861Z,4.20
2018-04-18T15:38:41.211Z,2.20
2018-04-18T15:41:09.503Z,2.40
2018-04-18T15:43:40.693Z,3.53
2018-04-18T15:46:11.010Z,2.43
2018-04-18T15:48:40.923Z,6.03
2018-04-18T15:51:10.816Z,7.03
2018-04-18T15:53:40.999Z,2.70
2018-04-18T15:56:11.351Z,3.90
2018-04-18T15:58:40.530Z,2.70
2018-04-18T16:01:09.784Z,11.87
2018-04-18T16:03:44.764Z,5.50
2018-04-18T16:06:14.723Z,8.03
2018-04-18T16:08:45.943Z,3.97
2018-04-18T16:11:19.981Z,5.43
2018-04-18T16:13:49.666Z,4.80
2018-04-18T16:16:18.034Z,4.57
2018-04-18T16:18:46.490Z,4.67
2018-04-18T16:21:15.730Z,5.27
2018-04-18T16:23:46.904Z,8.07
2018-04-18T16:26:15.846Z,10.47
2018-04-18T16:28:45.039Z,8.73
2018-04-18T16:31:15.957Z,2.83
2018-04-18T16:33:51.897Z,27.90
2018-04-18T16:36:25.151Z,93.10
2018-04-18T16:38:55.349Z,118.17
2018-04-18T16:41:24.491Z,226.47
2018-04-18T16:43:54.589Z,123.33
2018-04-18T16:46:26.132Z,121.37
2018-04-18T16:48:57.428Z,74.57
2018-04-18T16:51:26.892Z,93.50
2018-04-18T16:53:57.128Z,63.17
2018-04-18T16:56:26.398Z,102.40
2018-04-18T16:58:55.718Z,39.90
2018-04-18T17:01:26.273Z,70.63
2018-04-18T17:03:55.354Z,44.63
2018-04-18T17:06:26.127Z,60.60
2018-04-18T17:08:54.523Z,59.97
2018-04-18T17:11:23.713Z,45.70
2018-04-18T17:13:52.091Z,39.80
2018-04-18T17:16:20.508Z,40.77
2018-04-18T17:18:50.059Z,42.07
2018-04-18T17:21:19.714Z,41.77
2018-04-18T17:23:49.043Z,29.90
2018-04-18T17:26:23.619Z,31.63
2018-04-18T17:28:52.032Z,35.70
2018-04-18T17:31:21.293Z,34.43
2018-04-18T17:33:50.790Z,21.43
2018-04-18T17:36:25.686Z,13.23
2018-04-18T17:38:54.053Z,16.37
2018-04-18T17:41:24.489Z,28.23
2018-04-18T17:43:54.636Z,27.60
2018-04-18T17:46:23.018Z,7.30
2018-04-18T17:48:52.428Z,11.03
2018-04-18T17:51:21.618Z,23.97
2018-04-18T17:53:50.257Z,15.67
2018-04-18T17:56:19.042Z,6.60
2018-04-18T17:58:57.447Z,18.87
2018-04-18T18:01:26.383Z,18.20
2018-04-18T18:03:54.686Z,23.63
2018-04-18T18:06:24.519Z,20.10
2018-04-18T18:08:52.889Z,19.57
2018-04-18T18:11:23.223Z,19.57
2018-04-18T18:13:53.119Z,18.47
2018-04-18T18:16:22.324Z,15.97
2018-04-18T18:18:51.411Z,11.87
2018-04-18T18:21:31.424Z,14.80
2018-04-18T18:24:00.191Z,13.87
2018-04-18T18:26:28.561Z,14.93
2018-04-18T18:28:57.782Z,14.27
2018-04-18T18:31:27.126Z,18.93
2018-04-18T18:33:56.003Z,15.40
2018-04-18T18:36:26.275Z,14.40
2018-04-18T18:38:55.426Z,12.80
2018-04-18T18:41:23.875Z,11.73
2018-04-18T18:43:53.732Z,11.73
2018-04-18T18:46:23.178Z,11.43
2018-04-18T18:48:52.088Z,9.23
2018-04-18T18:51:20.534Z,11.87
2018-04-18T18:53:48.907Z,9.03
2018-04-18T18:56:17.526Z,10.30
2018-04-18T18:58:46.087Z,12.47
2018-04-18T19:01:14.407Z,8.50
2018-04-18T19:03:43.106Z,12.27
2018-04-18T19:06:12.969Z,10.07
2018-04-18T19:08:42.777Z,8.30
2018-04-18T19:11:12.034Z,8.47
2018-04-18T19:13:40.380Z,8.70
2018-04-18T19:16:08.730Z,10.53
2018-04-18T19:18:38.022Z,6.77
2018-04-18T19:21:06.442Z,6.60
2018-04-18T19:23:35.614Z,7.33
2018-04-18T19:26:06.293Z,8.00
2018-04-18T19:28:35.740Z,6.23
2018-04-18T19:31:04.911Z,7.17
2018-04-18T19:33:35.833Z,11.27
2018-04-18T19:36:05.330Z,8.13
2018-04-18T19:38:33.729Z,9.27
2018-04-18T19:41:02.895Z,7.97
2018-04-18T19:43:34.064Z,5.20
2018-04-18T19:46:02.597Z,10.33
2018-04-18T19:48:31.043Z,6.03
2018-04-18T19:51:00.239Z,8.97
2018-04-18T19:53:29.403Z,6.43
2018-04-18T19:55:58.333Z,7.97
2018-04-18T19:58:27.078Z,7.67
2018-04-18T20:00:56.429Z,5.53
2018-04-18T20:03:25.598Z,7.53
2018-04-18T20:05:54.858Z,6.43
2018-04-18T20:08:23.465Z,7.77
2018-04-18T20:10:54.434Z,7.47
2018-04-18T20:13:23.685Z,6.20
2018-04-18T20:15:55.898Z,3.97
2018-04-18T20:18:24.284Z,5.20
2018-04-18T20:20:54.245Z,7.70
2018-04-18T20:23:25.853Z,6.13
2018-04-18T20:25:54.730Z,6.00
2018-04-18T20:28:23.440Z,5.77
2018-04-18T20:30:51.782Z,6.30
2018-04-18T20:33:20.950Z,7.80
2018-04-18T20:35:50.334Z,5.30
2018-04-18T20:38:18.964Z,4.97
2018-04-18T20:40:48.182Z,7.03
2018-04-18T20:43:18.434Z,3.90
2018-04-18T20:45:49.482Z,5.50
2018-04-18T20:48:19.781Z,5.40
2018-04-18T20:50:49.715Z,7.03
2018-04-18T20:53:19.384Z,5.40
2018-04-18T20:55:48.466Z,7.67
2018-04-18T20:58:20.456Z,4.77
2018-04-18T21:00:51.191Z,7.03
2018-04-18T21:03:21.277Z,4.80
2018-04-18T21:05:50.629Z,4.07
2018-04-18T21:08:20.598Z,3.83
2018-04-18T21:10:50.161Z,4.63
2018-04-18T21:13:22.839Z,4.43
2018-04-18T21:15:52.045Z,4.63
2018-04-18T21:18:21.086Z,4.43
2018-04-18T21:20:50.827Z,5.53
2018-04-18T21:23:22.265Z,5.03
2018-04-18T21:25:52.127Z,4.70
2018-04-18T21:28:21.122Z,4.37
2018-04-18T21:30:50.210Z,2.93
2018-04-18T21:33:19.543Z,6.73
2018-04-18T21:35:47.836Z,4.50
2018-04-18T21:38:16.678Z,3.77
2018-04-18T21:40:48.194Z,10.43
2018-04-18T21:43:18.660Z,6.03
2018-04-18T21:45:47.989Z,3.93
2018-04-18T21:48:16.506Z,3.40
2018-04-18T21:50:45.441Z,4.47
2018-04-18T21:53:14.154Z,3.73
2018-04-18T21:55:46.915Z,3.87
2018-04-18T21:58:16.668Z,3.27
2018-04-18T22:00:45.278Z,4.37
2018-04-18T22:03:15.031Z,3.33
2018-04-18T22:05:45.386Z,4.53
2018-04-18T22:08:14.709Z,4.23
2018-04-18T22:10:42.998Z,3.23
2018-04-18T22:13:13.028Z,5.83
2018-04-18T22:15:42.826Z,5.73
2018-04-18T22:18:12.697Z,5.17
2018-04-18T22:20:41.027Z,5.50
2018-04-18T22:23:09.354Z,5.93
2018-04-18T22:25:39.132Z,3.73
2018-04-18T22:28:07.469Z,7.37
2018-04-18T22:30:36.021Z,4.47
2018-04-18T22:33:06.066Z,4.13
2018-04-18T22:35:35.270Z,2.90
2018-04-18T22:38:05.970Z,3.70
2018-04-18T22:40:36.056Z,3.87
2018-04-18T22:43:04.612Z,3.97
2018-04-18T22:45:33.320Z,3.20
2018-04-18T22:48:02.462Z,4.50
2018-04-18T22:50:31.107Z,4.17
2018-04-18T22:53:01.184Z,3.90
2018-04-18T22:58:12.101Z,3.27
2018-04-18T23:00:41.625Z,3.10
2018-04-18T23:03:11.533Z,2.80
2018-04-18T23:05:41.177Z,3.97
2018-04-18T23:08:14.081Z,3.07
2018-04-18T23:10:44.107Z,3.67
2018-04-18T23:13:14.068Z,3.27
2018-04-18T23:15:43.504Z,2.83
2018-04-18T23:18:13.643Z,3.00
2018-04-18T23:20:43.345Z,4.40
2018-04-18T23:23:13.750Z,3.03
2018-04-18T23:25:43.757Z,4.07
2018-04-18T23:28:13.962Z,5.83
2018-04-18T23:30:42.913Z,3.70
2018-04-18T23:33:12.193Z,3.93
2018-04-18T23:35:41.014Z,3.33
2018-04-18T23:38:10.169Z,4.17
2018-04-18T23:40:38.529Z,3.37
2018-04-18T23:43:09.366Z,2.93
2018-04-18T23:45:38.626Z,3.30
2018-04-18T23:48:06.938Z,4.03
2018-04-18T23:50:36.085Z,3.37
2018-04-18T23:53:05.513Z,4.83
2018-04-18T23:55:35.298Z,3.37
2018-04-18T23:58:12.751Z,5.00
